Time;durP1;ratioP1;P1;durP2;ratioP2;P2;SDS_P1;SDS_P2;PMS_P1;PMS_P2;Temp;Humidity;BMP_temperature;BMP_pressure;BME280_temperature;BME280_humidity;BME280_pressure;Samples;Min_cycle;Max_cycle;Signal;HPM_P1;HPM_P2
2022/01/25 00:15:17;;;;;;;;;;;0.70;99.90;;;;;;5035646;28;19920;-71
2022/01/25 00:26:19;;;;;;;;;;;0.80;99.90;;;;;;5034969;28;19924;-71
2022/01/25 00:28:52;;;;;;;;;;;0.80;99.90;;;;;;5034462;28;20369;-71
2022/01/25 00:31:18;;;;;;;;;;;0.80;99.90;;;;;;5034569;28;20061;-71
2022/01/25 00:33:45;;;;;;;;;;;0.90;99.90;;;;;;5035761;28;20010;-71
2022/01/25 00:36:12;;;;;;;;;;;1.00;99.90;;;;;;5035501;28;19913;-71
2022/01/25 00:38:37;;;;;;;;;;;1.00;99.90;;;;;;5035770;28;19913;-71
2022/01/25 00:41:03;;;;;;;;;;;1.00;99.90;;;;;;5029937;28;20361;-71
2022/01/25 00:43:30;;;;;;;;;;;1.10;99.90;;;;;;5031590;28;19924;-73
2022/01/25 00:45:59;;;;;;;;;;;1.00;99.90;;;;;;5031518;28;20436;-72
2022/01/25 00:49:01;;;;;;;;;;;0.90;99.90;;;;;;5031735;28;19913;-71
2022/01/25 00:56:35;;;;;;;;;;;0.50;99.90;;;;;;5035528;28;19945;-73
2022/01/25 00:59:03;;;;;;;;;;;0.50;99.90;;;;;;5033833;28;19913;-71
2022/01/25 01:01:29;;;;;;;;;;;0.50;99.90;;;;;;5033813;28;20471;-71
2022/01/25 01:03:55;;;;;;;;;;;0.60;99.90;;;;;;5033557;28;19921;-71
2022/01/25 01:06:21;;;;;;;;;;;0.60;99.90;;;;;;5034843;28;19946;-71
2022/01/25 01:08:47;;;;;;;;;;;0.50;99.90;;;;;;5034962;28;19919;-71
2022/01/25 01:11:19;;;;;;;;;;;0.60;99.90;;;;;;5033778;28;20347;-71
2022/01/25 01:38:12;;;;;;;;;;;0.00;99.90;;;;;;5034400;28;19920;-71
2022/01/25 01:48:53;;;;;;;;;;;0.00;99.90;;;;;;5034315;28;19913;-71
2022/01/25 01:51:26;;;;;;;;;;;0.00;99.90;;;;;;5034239;28;19921;-71
2022/01/25 01:53:53;;;;;;;;;;;0.20;99.90;;;;;;5034194;28;19913;-71
2022/01/25 01:56:19;;;;;;;;;;;0.00;99.90;;;;;;5032823;28;19913;-71
2022/01/25 01:58:44;;;;;;;;;;;0.00;99.90;;;;;;5034003;28;19920;-71
2022/01/25 02:01:12;;;;;;;;;;;0.10;99.90;;;;;;5033966;28;20003;-71
2022/01/25 02:03:38;;;;;;;;;;;0.10;99.90;;;;;;5033826;28;20403;-71
2022/01/25 02:06:04;;;;;;;;;;;0.00;99.90;;;;;;5034174;28;19917;-71
2022/01/25 02:08:30;;;;;;;;;;;0.00;99.90;;;;;;5032701;28;19963;-71
2022/01/25 02:10:55;;;;;;;;;;;0.00;99.90;;;;;;5033987;28;19917;-71
2022/01/25 02:13:21;;;;;;;;;;;0.00;99.90;;;;;;5033853;28;20272;-71
2022/01/25 02:15:48;;;;;;;;;;;-0.10;99.90;;;;;;5033697;28;19921;-71
2022/01/25 02:23:44;;;;;;;;;;;-0.10;99.90;;;;;;5033120;28;19980;-71
2022/01/25 02:26:10;;;;;;;;;;;-0.20;99.90;;;;;;5033163;28;19913;-71
2022/01/25 02:28:38;;;;;;;;;;;-0.20;99.90;;;;;;5032134;28;19921;-71
2022/01/25 02:31:05;;;;;;;;;;;-0.40;99.90;;;;;;5033669;28;19917;-71
2022/01/25 02:33:31;;;;;;;;;;;-0.50;99.90;;;;;;5032491;28;19913;-71
2022/01/25 02:35:57;;;;;;;;;;;-0.50;99.90;;;;;;5033144;28;19917;-71
2022/01/25 02:38:24;;;;;;;;;;;-0.50;99.90;;;;;;5033271;28;19945;-71
2022/01/25 02:40:50;;;;;;;;;;;-0.30;99.90;;;;;;5033331;28;19913;-71
2022/01/25 02:43:18;;;;;;;;;;;-0.30;99.90;;;;;;5031597;28;20007;-71
2022/01/25 02:45:46;;;;;;;;;;;-0.30;99.90;;;;;;5033519;28;19917;-71
2022/01/25 02:48:30;;;;;;;;;;;-0.30;99.90;;;;;;5033386;28;20367;-71
2022/01/25 02:50:57;;;;;;;;;;;-0.20;99.90;;;;;;5038717;28;19940;-71
2022/01/25 02:53:23;;;;;;;;;;;-0.10;99.90;;;;;;5038554;28;19913;-71
2022/01/25 02:55:48;;;;;;;;;;;0.10;99.90;;;;;;5039501;28;19920;-71
2022/01/25 02:58:14;;;;;;;;;;;0.10;99.90;;;;;;5039651;28;20380;-71
2022/01/25 03:00:40;;;;;;;;;;;-0.10;99.90;;;;;;5039952;28;19952;-71
2022/01/25 03:03:05;;;;;;;;;;;-0.30;99.90;;;;;;5038411;28;19970;-71
2022/01/25 03:05:31;;;;;;;;;;;-0.20;99.90;;;;;;5039496;28;20369;-71
2022/01/25 03:07:57;;;;;;;;;;;-0.30;99.90;;;;;;5039554;28;19920;-71
2022/01/25 03:10:23;;;;;;;;;;;-0.30;99.90;;;;;;5040023;28;19917;-71
2022/01/25 03:12:54;;;;;;;;;;;-0.20;99.90;;;;;;5039740;28;19913;-71
2022/01/25 03:17:56;;;;;;;;;;;-0.20;99.90;;;;;;5039061;28;20371;-71
2022/01/25 03:21:17;;;;;;;;;;;-0.30;99.90;;;;;;5039733;28;19944;-71
2022/01/25 03:23:19;;;;;;;;;;;-0.30;99.90;;;;;;5028805;28;19920;-71
2022/01/25 03:25:47;;;;;;;;;;;-0.20;99.90;;;;;;5039696;28;19952;-71
2022/01/25 03:28:14;;;;;;;;;;;-0.10;99.90;;;;;;5038664;28;19991;-71
2022/01/25 03:30:40;;;;;;;;;;;-0.10;99.90;;;;;;5038221;28;19913;-71
2022/01/25 03:33:05;;;;;;;;;;;0.00;99.90;;;;;;5037996;28;19948;-71
2022/01/25 03:35:31;;;;;;;;;;;0.00;99.90;;;;;;5038130;28;19913;-71
2022/01/25 03:37:57;;;;;;;;;;;0.10;99.90;;;;;;5039393;28;19963;-71
2022/01/25 03:40:22;;;;;;;;;;;0.10;99.90;;;;;;5038142;28;20000;-71
2022/01/25 03:42:48;;;;;;;;;;;0.30;99.90;;;;;;5039312;28;19920;-71
2022/01/25 03:45:19;;;;;;;;;;;0.20;99.90;;;;;;5039570;28;20400;-71
2022/01/25 03:47:59;;;;;;;;;;;0.10;99.90;;;;;;5037844;28;20367;-71
2022/01/25 03:50:25;;;;;;;;;;;0.10;99.90;;;;;;5038441;28;19921;-71
2022/01/25 03:52:51;;;;;;;;;;;0.20;99.90;;;;;;5039093;28;19956;-71
2022/01/25 03:55:16;;;;;;;;;;;0.30;99.90;;;;;;5038207;28;19939;-71
2022/01/25 03:57:42;;;;;;;;;;;0.30;99.90;;;;;;5039185;28;19966;-71
2022/01/25 04:00:09;;;;;;;;;;;0.30;99.90;;;;;;5038750;28;19913;-71
2022/01/25 04:02:37;;;;;;;;;;;0.40;99.90;;;;;;5035469;28;19913;-71
2022/01/25 04:05:02;;;;;;;;;;;0.30;99.90;;;;;;5036014;28;19921;-71
2022/01/25 04:07:42;;;;;;;;;;;0.40;99.90;;;;;;5036055;28;19967;-71
2022/01/25 04:10:08;;;;;;;;;;;0.40;99.90;;;;;;5034920;28;20012;-71
2022/01/25 04:12:34;;;;;;;;;;;0.40;99.90;;;;;;5035799;28;19948;-71
2022/01/25 04:15:01;;;;;;;;;;;0.40;99.90;;;;;;5036003;28;19917;-71
2022/01/25 04:17:26;;;;;;;;;;;0.40;99.90;;;;;;5034652;28;19913;-71
2022/01/25 04:20:13;;;;;;;;;;;0.50;99.90;;;;;;5035931;28;19960;-71
2022/01/25 04:25:23;;;;;;;;;;;0.50;99.90;;;;;;5035588;28;19987;-71
2022/01/25 04:27:49;;;;;;;;;;;0.60;99.90;;;;;;5034545;28;20356;-71
2022/01/25 04:30:14;;;;;;;;;;;0.60;99.90;;;;;;5035721;28;19913;-71
2022/01/25 04:32:46;;;;;;;;;;;0.60;99.90;;;;;;5035716;28;19917;-71
2022/01/25 04:57:20;;;;;;;;;;;0.50;99.90;;;;;;5035003;28;19924;-71
2022/01/25 04:59:50;;;;;;;;;;;0.50;99.90;;;;;;5034801;28;19909;-70
2022/01/25 05:03:08;;;;;;;;;;;0.40;99.90;;;;;;5035097;28;20051;-71
2022/01/25 05:05:12;;;;;;;;;;;0.50;99.90;;;;;;5024066;28;19925;-71
2022/01/25 05:07:49;;;;;;;;;;;0.40;99.90;;;;;;5033679;28;19923;-71
2022/01/25 05:10:15;;;;;;;;;;;0.40;99.90;;;;;;5035113;28;19920;-71
2022/01/25 05:17:46;;;;;;;;;;;0.20;99.90;;;;;;5034798;28;19913;-71
2022/01/25 05:22:55;;;;;;;;;;;0.40;99.90;;;;;;5034584;28;20006;-71
2022/01/25 05:25:21;;;;;;;;;;;0.40;99.90;;;;;;5035091;28;19968;-71
2022/01/25 05:27:46;;;;;;;;;;;0.40;99.90;;;;;;5034528;28;19924;-71
2022/01/25 05:30:12;;;;;;;;;;;0.50;99.90;;;;;;5034426;28;19917;-71
2022/01/25 05:32:39;;;;;;;;;;;0.60;99.90;;;;;;5034414;28;19917;-71
2022/01/25 05:35:04;;;;;;;;;;;0.30;99.90;;;;;;5034610;28;19967;-70
2022/01/25 05:37:38;;;;;;;;;;;0.40;99.90;;;;;;5033232;28;19913;-70
2022/01/25 05:40:07;;;;;;;;;;;0.50;99.90;;;;;;5034261;28;20016;-71
2022/01/25 05:47:37;;;;;;;;;;;0.30;99.90;;;;;;5034261;28;19913;-71
2022/01/25 05:50:03;;;;;;;;;;;0.00;99.90;;;;;;5032898;28;20430;-70
2022/01/25 05:52:29;;;;;;;;;;;-0.10;99.90;;;;;;5032874;28;19917;-71
2022/01/25 05:54:56;;;;;;;;;;;-0.10;99.90;;;;;;5034120;28;19967;-70
2022/01/25 05:57:22;;;;;;;;;;;0.00;99.90;;;;;;5034158;28;19963;-71
2022/01/25 05:59:48;;;;;;;;;;;0.20;99.90;;;;;;5033025;28;19944;-71
2022/01/25 06:02:18;;;;;;;;;;;0.20;99.90;;;;;;5032669;28;20039;-71
2022/01/25 06:04:44;;;;;;;;;;;0.20;99.90;;;;;;5033539;28;19920;-70
2022/01/25 06:07:10;;;;;;;;;;;0.20;99.90;;;;;;5034048;28;20269;-71
2022/01/25 06:09:35;;;;;;;;;;;-0.20;99.90;;;;;;5033546;28;19924;-70
2022/01/25 06:12:01;;;;;;;;;;;-0.50;99.90;;;;;;5034111;28;19917;-71
2022/01/25 06:14:27;;;;;;;;;;;-0.30;99.90;;;;;;5033869;28;19913;-70
2022/01/25 06:16:52;;;;;;;;;;;0.10;99.90;;;;;;5032485;28;19913;-71
2022/01/25 06:19:18;;;;;;;;;;;0.10;99.90;;;;;;5032906;28;19944;-71
2022/01/25 06:21:43;;;;;;;;;;;0.10;99.90;;;;;;5033257;28;19924;-71
2022/01/25 06:24:09;;;;;;;;;;;-0.10;99.90;;;;;;5030025;28;19951;-70
2022/01/25 06:26:35;;;;;;;;;;;-0.10;99.90;;;;;;5033215;28;19994;-71
2022/01/25 06:29:01;;;;;;;;;;;-0.30;99.90;;;;;;5033061;28;19944;-71
2022/01/25 06:31:27;;;;;;;;;;;-0.40;99.90;;;;;;5031408;28;19917;-71
2022/01/25 06:33:52;;;;;;;;;;;-0.50;99.90;;;;;;5031117;28;19920;-71
2022/01/25 06:36:19;;;;;;;;;;;-0.30;99.90;;;;;;5031601;28;19913;-71
2022/01/25 06:38:44;;;;;;;;;;;-0.20;99.90;;;;;;5032236;28;19920;-71
2022/01/25 06:41:12;;;;;;;;;;;-0.40;99.90;;;;;;5033348;28;19921;-72
2022/01/25 06:43:38;;;;;;;;;;;-0.40;99.90;;;;;;5033060;28;19928;-71
2022/01/25 06:46:04;;;;;;;;;;;-0.30;99.90;;;;;;5033185;28;19963;-71
2022/01/25 06:48:30;;;;;;;;;;;0.00;99.90;;;;;;5032938;28;19944;-71
2022/01/25 06:50:56;;;;;;;;;;;-0.10;99.90;;;;;;5032350;28;19928;-73
2022/01/25 06:53:22;;;;;;;;;;;-0.10;99.90;;;;;;5030042;28;20349;-72
2022/01/25 06:55:47;;;;;;;;;;;-0.30;99.90;;;;;;5031811;28;19975;-72
2022/01/25 06:58:13;;;;;;;;;;;-0.20;99.90;;;;;;5030995;28;19920;-72
2022/01/25 07:00:39;;;;;;;;;;;-0.30;99.90;;;;;;5031498;28;19920;-71
2022/01/25 07:03:05;;;;;;;;;;;-0.30;99.90;;;;;;5031177;28;19940;-72
2022/01/25 07:05:30;;;;;;;;;;;-0.40;99.90;;;;;;5032781;28;19927;-72
2022/01/25 07:07:56;;;;;;;;;;;-0.60;99.90;;;;;;5033039;28;20283;-73
2022/01/25 07:10:22;;;;;;;;;;;-0.90;99.90;;;;;;5032988;28;19913;-72
2022/01/25 07:12:48;;;;;;;;;;;-1.10;99.90;;;;;;5032974;28;20348;-72
2022/01/25 07:15:14;;;;;;;;;;;-0.90;99.90;;;;;;5033282;28;19917;-71
2022/01/25 07:17:40;;;;;;;;;;;-0.80;99.90;;;;;;5031981;28;19949;-72
2022/01/25 07:20:06;;;;;;;;;;;-0.80;99.90;;;;;;5033005;28;19917;-72
2022/01/25 07:22:35;;;;;;;;;;;-0.80;99.90;;;;;;5023376;28;20399;-71
2022/01/25 07:25:03;;;;;;;;;;;-0.60;99.90;;;;;;5012505;28;20262;-72
2022/01/25 07:27:28;;;;;;;;;;;-0.60;99.90;;;;;;5030766;28;19917;-72
2022/01/25 07:29:54;;;;;;;;;;;-0.70;99.90;;;;;;5030727;28;19988;-72
2022/01/25 07:32:19;;;;;;;;;;;-0.60;99.90;;;;;;5030728;28;20280;-73
2022/01/25 07:34:45;;;;;;;;;;;-0.70;99.90;;;;;;5032208;28;19921;-72
2022/01/25 07:37:11;;;;;;;;;;;-0.70;99.90;;;;;;5032999;28;19949;-72
2022/01/25 07:39:36;;;;;;;;;;;-0.50;99.90;;;;;;5034703;28;19913;-71
2022/01/25 07:42:02;;;;;;;;;;;-0.30;99.90;;;;;;5033381;28;19962;-72
2022/01/25 07:44:31;;;;;;;;;;;-0.20;99.90;;;;;;5034309;28;19932;-72
2022/01/25 07:46:57;;;;;;;;;;;-0.40;99.90;;;;;;5034310;28;19913;-72
2022/01/25 07:49:24;;;;;;;;;;;-0.30;99.90;;;;;;5049779;28;19949;-71
2022/01/25 07:51:53;;;;;;;;;;;-0.10;99.90;;;;;;5035859;28;19946;-71
2022/01/25 07:54:20;;;;;;;;;;;-0.10;99.90;;;;;;5034853;28;19913;-72
2022/01/25 07:56:46;;;;;;;;;;;0.10;99.90;;;;;;5034070;28;19913;-72
2022/01/25 07:59:12;;;;;;;;;;;0.40;99.90;;;;;;5032951;28;19971;-71
2022/01/25 08:01:38;;;;;;;;;;;0.50;99.90;;;;;;5032496;28;20022;-71
2022/01/25 08:04:04;;;;;;;;;;;0.60;99.90;;;;;;5033147;28;20408;-71
2022/01/25 08:06:30;;;;;;;;;;;0.90;99.90;;;;;;5034522;28;19953;-70
2022/01/25 08:08:56;;;;;;;;;;;0.90;99.90;;;;;;5032070;28;19914;-70
2022/01/25 08:11:22;;;;;;;;;;;1.00;99.90;;;;;;5033856;28;19921;-71
2022/01/25 08:13:49;;;;;;;;;;;1.00;99.90;;;;;;5033245;28;19920;-78
2022/01/25 08:16:18;;;;;;;;;;;1.20;99.90;;;;;;5035182;28;19920;-80
2022/01/25 08:18:44;;;;;;;;;;;1.30;99.90;;;;;;5035640;28;20678;-79
2022/01/25 08:21:10;;;;;;;;;;;1.60;99.90;;;;;;5033727;28;19917;-78
2022/01/25 08:23:36;;;;;;;;;;;1.40;99.90;;;;;;5033739;28;20370;-80
2022/01/25 08:26:03;;;;;;;;;;;1.10;99.90;;;;;;5034458;28;19920;-78
2022/01/25 08:28:30;;;;;;;;;;;1.10;99.90;;;;;;5033004;28;19914;-78
2022/01/25 08:30:56;;;;;;;;;;;1.30;99.90;;;;;;5033363;28;19913;-75
2022/01/25 08:33:22;;;;;;;;;;;1.50;99.90;;;;;;5033661;28;20008;-76
2022/01/25 08:35:48;;;;;;;;;;;2.10;99.90;;;;;;5029180;28;19913;-77
2022/01/25 08:38:13;;;;;;;;;;;2.40;99.90;;;;;;5035352;28;19917;-75
2022/01/25 08:40:40;;;;;;;;;;;2.60;99.90;;;;;;5034377;28;20008;-76
2022/01/25 08:43:07;;;;;;;;;;;2.70;99.90;;;;;;5032784;28;20396;-76
2022/01/25 08:45:33;;;;;;;;;;;2.60;99.90;;;;;;5032286;28;19917;-77
2022/01/25 08:47:59;;;;;;;;;;;2.60;99.90;;;;;;5030962;28;19921;-75
2022/01/25 08:50:25;;;;;;;;;;;2.40;99.90;;;;;;5032975;28;19913;-75
2022/01/25 08:52:51;;;;;;;;;;;2.10;99.90;;;;;;5030819;28;19917;-76
2022/01/25 08:55:17;;;;;;;;;;;2.20;99.90;;;;;;5033276;28;19966;-75
2022/01/25 08:57:43;;;;;;;;;;;2.20;99.90;;;;;;5033324;28;19953;-75
2022/01/25 09:00:10;;;;;;;;;;;2.40;99.90;;;;;;5048034;28;20271;-75
2022/01/25 09:02:39;;;;;;;;;;;2.40;99.90;;;;;;5032213;28;19924;-72
2022/01/25 09:05:05;;;;;;;;;;;2.50;99.90;;;;;;5047492;28;19960;-75
2022/01/25 09:07:31;;;;;;;;;;;2.50;99.90;;;;;;5033686;28;19917;-75
2022/01/25 09:09:57;;;;;;;;;;;2.60;99.90;;;;;;5034857;28;19939;-74
2022/01/25 09:12:22;;;;;;;;;;;2.70;99.90;;;;;;5034647;28;20003;-74
2022/01/25 09:14:57;;;;;;;;;;;2.70;99.90;;;;;;5031310;28;20261;-74
2022/01/25 09:17:23;;;;;;;;;;;2.80;99.90;;;;;;5033028;28;19913;-68
2022/01/25 09:19:51;;;;;;;;;;;3.00;99.90;;;;;;5034263;28;19967;-67
2022/01/25 09:22:19;;;;;;;;;;;3.20;99.90;;;;;;5033585;28;20428;-68
2022/01/25 09:24:49;;;;;;;;;;;3.30;99.90;;;;;;5032847;28;19925;-68
2022/01/25 09:27:15;;;;;;;;;;;3.50;99.90;;;;;;5032779;28;19943;-68
2022/01/25 09:29:41;;;;;;;;;;;3.60;99.90;;;;;;5032548;28;20419;-68
2022/01/25 09:32:07;;;;;;;;;;;;;;;;;;5032149;28;19913;-69
2022/01/25 09:34:34;;;;;;;;;;;4.00;99.90;;;;;;5031059;28;20012;-68
2022/01/25 09:37:00;;;;;;;;;;;3.60;99.90;;;;;;5032113;28;19913;-68
2022/01/25 09:39:25;;;;;;;;;;;3.60;99.90;;;;;;5032447;28;20261;-68
2022/01/25 09:41:54;;;;;;;;;;;3.60;99.90;;;;;;5031050;28;19913;-68
2022/01/25 09:44:20;;;;;;;;;;;3.80;99.90;;;;;;5032224;28;20292;-68
2022/01/25 09:46:46;;;;;;;;;;;4.60;99.90;;;;;;5032049;28;19913;-68
2022/01/25 09:49:12;;;;;;;;;;;4.80;99.90;;;;;;5033764;28;19921;-68
2022/01/25 09:51:41;;;;;;;;;;;5.10;99.90;;;;;;5033791;28;19917;-68
2022/01/25 09:54:07;;;;;;;;;;;5.20;99.90;;;;;;5029035;28;19918;-68
2022/01/25 09:56:33;;;;;;;;;;;5.20;99.90;;;;;;5023433;28;20280;-68
2022/01/25 09:59:00;;;;;;;;;;;5.00;99.90;;;;;;5032958;28;19914;-68
2022/01/25 10:01:29;;;;;;;;;;;5.20;99.90;;;;;;5031837;28;19920;-69
2022/01/25 10:03:55;;;;;;;;;;;5.30;99.90;;;;;;5032923;28;19955;-68
2022/01/25 10:06:24;;;;;;;;;;;5.60;99.90;;;;;;5032045;28;19917;-68
2022/01/25 10:08:52;;;;;;;;;;;5.40;99.90;;;;;;5032821;28;19914;-68
2022/01/25 10:11:19;;;;;;;;;;;5.50;99.90;;;;;;5032660;28;19944;-68
2022/01/25 10:13:54;;;;;;;;;;;5.50;99.90;;;;;;5033435;28;19913;-69
2022/01/25 10:16:30;;;;;;;;;;;5.80;99.90;;;;;;5031860;28;20421;-69
2022/01/25 10:18:58;;;;;;;;;;;6.10;99.90;;;;;;5030765;28;19920;-70
2022/01/25 10:21:26;;;;;;;;;;;6.10;99.90;;;;;;5031644;28;20292;-68
2022/01/25 10:24:00;;;;;;;;;;;6.20;99.90;;;;;;5029441;28;20011;-71
2022/01/25 10:26:29;;;;;;;;;;;6.60;99.90;;;;;;5031408;28;19917;-69
2022/01/25 10:28:55;;;;;;;;;;;6.60;99.90;;;;;;5029911;28;19984;-69
2022/01/25 10:31:32;;;;;;;;;;;5.90;99.90;;;;;;5032216;28;19924;-69
2022/01/25 10:33:59;;;;;;;;;;;6.20;99.90;;;;;;5030951;28;19913;-70
2022/01/25 10:36:25;;;;;;;;;;;6.50;99.90;;;;;;5031120;28;19920;-68
2022/01/25 10:38:53;;;;;;;;;;;7.00;99.90;;;;;;5029088;28;19917;-67
2022/01/25 10:41:24;;;;;;;;;;;7.00;99.90;;;;;;5031108;28;20388;-68
2022/01/25 10:43:53;;;;;;;;;;;7.20;99.90;;;;;;5031142;28;19925;-68
2022/01/25 10:46:27;;;;;;;;;;;7.00;99.90;;;;;;5031004;28;19913;-68
2022/01/25 10:48:55;;;;;;;;;;;7.10;99.90;;;;;;5029510;28;19917;-69
2022/01/25 10:51:25;;;;;;;;;;;7.10;99.90;;;;;;5030984;28;20364;-69
2022/01/25 10:54:02;;;;;;;;;;;7.00;99.90;;;;;;5029435;28;19978;-68
2022/01/25 10:56:48;;;;;;;;;;;7.10;99.90;;;;;;5030771;28;20322;-68
2022/01/25 10:59:17;;;;;;;;;;;7.00;99.90;;;;;;5030577;28;20007;-67
2022/01/25 11:01:47;;;;;;;;;;;6.70;99.90;;;;;;5032705;28;20000;-69
2022/01/25 11:04:14;;;;;;;;;;;7.00;99.90;;;;;;5031841;28;20018;-69
2022/01/25 11:06:41;;;;;;;;;;;7.20;99.90;;;;;;5030831;28;19921;-67
2022/01/25 11:09:11;;;;;;;;;;;7.20;99.90;;;;;;5030823;28;19913;-69
2022/01/25 11:11:41;;;;;;;;;;;7.40;99.90;;;;;;5035487;28;20355;-68
2022/01/25 11:16:53;;;;;;;;;;;7.80;99.90;;;;;;5034686;28;20279;-72
2022/01/25 11:19:19;;;;;;;;;;;7.80;99.90;;;;;;5033670;28;19955;-69
2022/01/25 11:21:46;;;;;;;;;;;7.70;99.90;;;;;;5034644;28;19917;-72
2022/01/25 11:24:13;;;;;;;;;;;7.70;99.90;;;;;;5033483;28;19921;-70
2022/01/25 11:26:40;;;;;;;;;;;8.10;99.90;;;;;;5035199;28;19913;-71
2022/01/25 11:29:09;;;;;;;;;;;8.20;99.90;;;;;;5035071;28;19928;-72
2022/01/25 11:31:36;;;;;;;;;;;8.20;99.90;;;;;;5034466;28;19917;-70
2022/01/25 11:34:05;;;;;;;;;;;8.10;99.90;;;;;;5034607;28;19917;-72
2022/01/25 11:36:50;;;;;;;;;;;8.20;99.90;;;;;;5034290;28;19913;-72
2022/01/25 11:39:18;;;;;;;;;;;7.80;99.90;;;;;;5013142;28;19918;-72
2022/01/25 11:41:44;;;;;;;;;;;7.80;99.90;;;;;;5035291;28;19963;-70
2022/01/25 11:44:12;;;;;;;;;;;7.60;99.90;;;;;;5033496;28;19929;-72
2022/01/25 11:46:41;;;;;;;;;;;7.70;99.90;;;;;;5034567;28;19913;-72
2022/01/25 11:49:15;;;;;;;;;;;7.60;99.90;;;;;;5032668;28;20467;-72
2022/01/25 11:51:42;;;;;;;;;;;7.60;99.90;;;;;;5033412;28;19913;-72
2022/01/25 11:54:09;;;;;;;;;;;7.40;99.90;;;;;;5034451;28;20352;-70
2022/01/25 11:56:41;;;;;;;;;;;7.50;99.90;;;;;;5034521;28;19952;-71
2022/01/25 11:59:09;;;;;;;;;;;7.60;99.90;;;;;;5032284;28;19917;-72
2022/01/25 12:01:39;;;;;;;;;;;7.50;99.90;;;;;;5035438;28;19991;-72
2022/01/25 12:04:06;;;;;;;;;;;7.50;99.90;;;;;;5035754;28;19921;-70
2022/01/25 12:06:37;;;;;;;;;;;7.50;99.90;;;;;;5033489;28;19967;-72
2022/01/25 12:09:43;;;;;;;;;;;7.70;99.90;;;;;;5032588;28;19991;-72
2022/01/25 12:12:09;;;;;;;;;;;7.80;99.90;;;;;;5032591;28;19921;-71
2022/01/25 12:14:53;;;;;;;;;;;7.50;99.90;;;;;;5034151;28;19917;-71
2022/01/25 12:17:32;;;;;;;;;;;7.40;99.90;;;;;;5032804;28;19917;-70
2022/01/25 12:20:03;;;;;;;;;;;7.50;99.90;;;;;;5033398;28;19917;-71
2022/01/25 12:22:40;;;;;;;;;;;7.80;99.90;;;;;;5030709;28;19917;-71
2022/01/25 12:27:52;;;;;;;;;;;7.90;99.90;;;;;;5034642;28;20304;-71
2022/01/25 12:30:29;;;;;;;;;;;7.90;99.90;;;;;;5035903;28;19990;-71
2022/01/25 12:33:00;;;;;;;;;;;7.90;99.90;;;;;;5033451;28;19920;-71
2022/01/25 12:35:40;;;;;;;;;;;7.80;99.90;;;;;;5031917;28;20007;-70
2022/01/25 12:38:24;;;;;;;;;;;7.50;99.90;;;;;;5048004;28;19917;-70
2022/01/25 12:40:52;;;;;;;;;;;7.70;99.90;;;;;;5033424;28;19921;-71
2022/01/25 12:43:20;;;;;;;;;;;7.80;99.90;;;;;;5033709;28;19917;-71
2022/01/25 12:45:48;;;;;;;;;;;7.90;99.90;;;;;;5033722;28;19986;-70
2022/01/25 12:48:17;;;;;;;;;;;7.90;99.90;;;;;;5033535;28;19923;-71
2022/01/25 12:50:46;;;;;;;;;;;7.90;99.90;;;;;;5032447;28;19919;-71
2022/01/25 12:53:14;;;;;;;;;;;7.80;99.90;;;;;;5033054;28;19917;-71
2022/01/25 12:55:41;;;;;;;;;;;7.60;99.90;;;;;;5032772;28;19917;-72
2022/01/25 12:58:09;;;;;;;;;;;7.90;99.90;;;;;;5032669;28;20249;-72
2022/01/25 13:00:43;;;;;;;;;;;8.00;99.90;;;;;;5033041;28;19990;-71
2022/01/25 13:03:10;;;;;;;;;;;7.60;99.90;;;;;;5032787;28;20365;-70
2022/01/25 13:05:40;;;;;;;;;;;7.80;99.90;;;;;;5032490;28;19925;-71
2022/01/25 13:08:29;;;;;;;;;;;8.00;99.90;;;;;;5033051;28;19921;-71
2022/01/25 13:11:16;;;;;;;;;;;8.10;99.90;;;;;;5033446;28;19917;-71
2022/01/25 13:13:57;;;;;;;;;;;8.10;99.90;;;;;;5032470;28;19913;-70
2022/01/25 13:16:41;;;;;;;;;;;8.10;99.90;;;;;;5031726;28;19913;-74
2022/01/25 13:19:07;;;;;;;;;;;8.20;99.90;;;;;;5027063;28;19917;-71
2022/01/25 13:21:43;;;;;;;;;;;8.00;99.90;;;;;;5029527;28;20339;-71
2022/01/25 13:24:11;;;;;;;;;;;8.20;99.90;;;;;;5029058;28;20243;-72
2022/01/25 13:26:47;;;;;;;;;;;8.10;99.90;;;;;;5032120;28;20383;-74
2022/01/25 13:32:32;;;;;;;;;;;8.40;99.90;;;;;;5029797;28;19920;-71
2022/01/25 13:35:03;;;;;;;;;;;8.20;99.90;;;;;;4992291;28;19913;-72
2022/01/25 13:37:29;;;;;;;;;;;8.10;99.90;;;;;;5022229;28;19948;-70
2022/01/25 13:39:59;;;;;;;;;;;7.90;99.90;;;;;;5032567;28;19916;-71
2022/01/25 13:42:30;;;;;;;;;;;;;;;;;;5033390;28;20377;-70
2022/01/25 13:47:59;;;;;;;;;;;7.50;99.90;;;;;;5030711;28;19920;-71
2022/01/25 13:50:26;;;;;;;;;;;7.50;99.90;;;;;;5030596;28;19949;-71
2022/01/25 13:52:53;;;;;;;;;;;7.70;99.90;;;;;;5030085;28;19956;-71
2022/01/25 13:55:19;;;;;;;;;;;7.80;99.90;;;;;;5031800;28;20000;-72
2022/01/25 13:57:46;;;;;;;;;;;7.70;99.90;;;;;;5031680;28;19995;-71
2022/01/25 14:00:14;;;;;;;;;;;7.60;99.90;;;;;;5029669;28;19913;-71
2022/01/25 14:02:40;;;;;;;;;;;7.60;99.90;;;;;;5031269;28;19956;-71
2022/01/25 14:05:07;;;;;;;;;;;7.60;99.90;;;;;;5031186;28;19971;-70
2022/01/25 14:07:36;;;;;;;;;;;7.50;99.90;;;;;;5030325;28;20290;-70
2022/01/25 14:10:12;;;;;;;;;;;7.40;99.90;;;;;;5030584;28;19917;-68
2022/01/25 14:24:29;;;;;;;;;;;7.70;99.90;;;;;;5021861;28;19971;-68
2022/01/25 14:27:17;;;;;;;;;;;7.60;99.90;;;;;;5026117;28;20375;-69
2022/01/25 14:29:49;;;;;;;;;;;7.60;99.90;;;;;;5014925;28;20274;-69
2022/01/25 14:32:16;;;;;;;;;;;7.50;99.90;;;;;;5029968;28;19939;-68
2022/01/25 14:37:47;;;;;;;;;;;7.40;99.90;;;;;;5024422;28;19948;-69
2022/01/25 14:40:15;;;;;;;;;;;7.50;99.90;;;;;;5027548;28;19913;-69
2022/01/25 14:42:44;;;;;;;;;;;7.50;99.90;;;;;;5030589;28;19966;-69
2022/01/25 14:45:19;;;;;;;;;;;7.60;99.90;;;;;;5030389;28;19925;-69
2022/01/25 14:47:46;;;;;;;;;;;7.50;99.90;;;;;;5031572;28;19913;-69
2022/01/25 14:50:31;;;;;;;;;;;7.50;99.90;;;;;;5030921;28;19920;-69
2022/01/25 14:53:02;;;;;;;;;;;7.60;99.90;;;;;;5031532;28;19986;-69
2022/01/25 14:55:28;;;;;;;;;;;7.70;99.90;;;;;;5032986;28;19919;-68
2022/01/25 14:58:10;;;;;;;;;;;7.60;99.90;;;;;;5031622;28;20257;-69
2022/01/25 15:00:41;;;;;;;;;;;7.60;99.90;;;;;;5031336;28;19967;-68
2022/01/25 15:03:07;;;;;;;;;;;7.60;99.90;;;;;;5030920;28;19913;-68
2022/01/25 15:05:33;;;;;;;;;;;7.60;99.90;;;;;;5030853;28;19924;-69
2022/01/25 15:07:59;;;;;;;;;;;7.50;99.90;;;;;;5029281;28;20000;-68
2022/01/25 15:10:31;;;;;;;;;;;7.50;99.90;;;;;;5029813;28;19924;-68
2022/01/25 15:12:57;;;;;;;;;;;7.40;99.90;;;;;;5030714;28;19919;-68
2022/01/25 15:15:29;;;;;;;;;;;7.30;99.90;;;;;;5030960;28;19921;-69
2022/01/25 15:17:56;;;;;;;;;;;7.20;99.90;;;;;;5030447;28;19923;-68
2022/01/25 15:20:28;;;;;;;;;;;7.20;99.90;;;;;;5029630;28;19956;-68
2022/01/25 15:22:53;;;;;;;;;;;7.30;99.90;;;;;;5029472;28;19917;-69
2022/01/25 15:25:22;;;;;;;;;;;7.30;99.90;;;;;;5030690;28;19947;-68
2022/01/25 15:27:50;;;;;;;;;;;7.30;99.90;;;;;;5028442;28;19920;-70
2022/01/25 15:30:16;;;;;;;;;;;7.20;99.90;;;;;;5030459;28;19917;-69
2022/01/25 15:32:42;;;;;;;;;;;7.20;99.90;;;;;;5030785;28;19920;-69
2022/01/25 15:35:10;;;;;;;;;;;7.30;99.90;;;;;;5029399;28;20604;-70
2022/01/25 15:37:40;;;;;;;;;;;7.10;99.90;;;;;;5030915;28;20391;-69
2022/01/25 15:40:13;;;;;;;;;;;7.10;99.90;;;;;;5031690;28;19997;-69
2022/01/25 15:42:39;;;;;;;;;;;7.20;99.90;;;;;;5028595;28;19917;-69
2022/01/25 15:45:24;;;;;;;;;;;7.10;99.90;;;;;;5030401;28;19921;-69
2022/01/25 15:47:50;;;;;;;;;;;7.10;99.90;;;;;;5030757;28;20303;-69
2022/01/25 15:50:16;;;;;;;;;;;7.00;99.90;;;;;;5013202;28;20257;-69
2022/01/25 15:52:43;;;;;;;;;;;6.90;99.90;;;;;;5030331;28;19970;-69
2022/01/25 15:55:09;;;;;;;;;;;6.90;99.90;;;;;;5032225;28;20424;-69
2022/01/25 15:57:35;;;;;;;;;;;6.80;99.90;;;;;;5032107;28;19913;-70
2022/01/25 16:00:03;;;;;;;;;;;6.80;99.90;;;;;;5032417;28;20273;-69
2022/01/25 16:02:30;;;;;;;;;;;6.70;99.90;;;;;;5046844;28;19912;-69
2022/01/25 16:04:55;;;;;;;;;;;6.60;99.90;;;;;;5054629;28;20360;-69
2022/01/25 16:07:21;;;;;;;;;;;6.60;99.90;;;;;;5053540;28;19913;-69
2022/01/25 16:09:54;;;;;;;;;;;6.60;99.90;;;;;;5054089;28;20284;-69
2022/01/25 16:12:20;;;;;;;;;;;6.50;99.90;;;;;;5047865;28;19913;-70
2022/01/25 16:14:46;;;;;;;;;;;6.50;99.90;;;;;;5034830;28;19919;-69
2022/01/25 16:17:13;;;;;;;;;;;6.40;99.90;;;;;;5032502;28;19925;-69
2022/01/25 16:19:39;;;;;;;;;;;6.40;99.90;;;;;;5033680;28;20028;-69
2022/01/25 16:22:06;;;;;;;;;;;6.20;99.90;;;;;;5033367;28;19917;-69
2022/01/25 16:24:33;;;;;;;;;;;6.20;99.90;;;;;;5034010;28;20016;-68
2022/01/25 16:26:59;;;;;;;;;;;6.20;99.90;;;;;;5033902;28;19913;-70
2022/01/25 16:29:25;;;;;;;;;;;6.20;99.90;;;;;;5035498;28;19953;-69
2022/01/25 16:31:53;;;;;;;;;;;6.10;99.90;;;;;;5033520;28;19944;-69
2022/01/25 16:34:19;;;;;;;;;;;5.80;99.90;;;;;;5048988;28;19917;-69
2022/01/25 16:36:46;;;;;;;;;;;5.60;99.90;;;;;;5029556;28;20398;-69
2022/01/25 16:39:14;;;;;;;;;;;5.50;99.90;;;;;;5033078;28;19920;-69
2022/01/25 16:41:40;;;;;;;;;;;5.50;99.90;;;;;;5032302;28;19917;-70
2022/01/25 16:44:06;;;;;;;;;;;5.40;99.90;;;;;;5030674;28;19925;-69
2022/01/25 16:46:32;;;;;;;;;;;5.30;99.90;;;;;;5032260;28;19928;-70
2022/01/25 16:48:58;;;;;;;;;;;5.30;99.90;;;;;;5032916;28;20361;-69